Time;durP1;ratioP1;P1;durP2;ratioP2;P2;SDS_P1;SDS_P2;PMS_P1;PMS_P2;Temp;Humidity;BMP_temperature;BMP_pressure;BME280_temperature;BME280_humidity;BME280_pressure;Samples;Min_cycle;Max_cycle;Signal;HPM_P1;HPM_P2
2022/11/08 00:02:49;;;;;;;0.20;0.10;;;14.10;99.90;;;;;;25511029;23;20973;-71
2022/11/08 00:23:18;;;;;;;0.20;0.00;;;14.20;99.90;;;;;;25542292;23;20361;-71
2022/11/08 00:33:22;;;;;;;0.20;0.00;;;14.30;99.90;;;;;;25541175;23;20388;-71
2022/11/08 00:43:27;;;;;;;0.20;0.00;;;14.40;99.90;;;;;;25542133;23;20398;-72
2022/11/08 00:53:31;;;;;;;0.20;0.00;;;14.50;99.90;;;;;;25540246;23;20376;-70
2022/11/08 01:03:36;;;;;;;0.20;0.00;;;14.50;99.90;;;;;;25513310;23;20369;-70
2022/11/08 01:13:40;;;;;;;0.20;0.10;;;14.50;99.90;;;;;;25511249;23;20409;-71
2022/11/08 01:23:45;;;;;;;0.20;0.05;;;14.60;99.90;;;;;;25539943;23;20376;-71
2022/11/08 01:33:52;;;;;;;0.20;0.10;;;14.50;99.90;;;;;;25537948;23;20404;-72
2022/11/08 01:43:58;;;;;;;0.20;0.10;;;14.60;99.90;;;;;;25540059;23;20370;-72
2022/11/08 01:54:06;;;;;;;0.20;0.00;;;14.70;99.90;;;;;;25511328;23;20429;-72
2022/11/08 02:04:13;;;;;;;0.20;0.00;;;14.60;99.90;;;;;;25537762;23;20437;-71
2022/11/08 02:14:17;;;;;;;0.20;0.03;;;14.90;99.90;;;;;;25511423;23;20413;-70
2022/11/08 02:24:23;;;;;;;0.20;0.00;;;15.00;99.90;;;;;;25536854;23;20397;-71
2022/11/08 02:34:29;;;;;;;0.20;0.10;;;14.90;99.90;;;;;;25537547;23;20377;-70
2022/11/08 02:44:34;;;;;;;0.20;0.10;;;14.70;99.90;;;;;;25536665;23;20368;-70
2022/11/08 02:54:38;;;;;;;0.20;0.07;;;14.70;99.90;;;;;;25537303;23;20389;-71
2022/11/08 03:04:44;;;;;;;0.20;0.10;;;14.60;99.90;;;;;;25535874;23;20372;-70
2022/11/08 03:14:47;;;;;;;0.20;0.10;;;14.50;99.90;;;;;;25535363;23;20384;-71
2022/11/08 03:24:53;;;;;;;0.20;0.10;;;14.50;99.90;;;;;;25508019;23;20374;-72
2022/11/08 03:34:58;;;;;;;0.20;0.00;;;14.60;99.90;;;;;;25509489;23;20388;-72
2022/11/08 03:45:03;;;;;;;0.20;0.00;;;14.70;99.90;;;;;;25534975;23;20425;-71
2022/11/08 03:55:09;;;;;;;0.20;0.00;;;14.40;99.90;;;;;;25533625;23;20369;-71
2022/11/08 04:05:15;;;;;;;0.20;0.00;;;14.30;99.90;;;;;;25534945;23;20369;-73
2022/11/08 04:15:22;;;;;;;0.20;0.00;;;14.20;99.90;;;;;;25533548;23;20388;-70
2022/11/08 04:25:27;;;;;;;0.20;0.00;;;14.30;99.90;;;;;;25535204;23;20373;-71
2022/11/08 04:35:37;;;;;;;0.20;0.00;;;14.30;99.90;;;;;;25534761;23;20416;-70
2022/11/08 04:45:42;;;;;;;0.20;0.03;;;14.20;99.90;;;;;;25533337;23;20524;-72
2022/11/08 04:55:46;;;;;;;0.20;0.00;;;14.20;99.90;;;;;;25538405;23;20385;-73
2022/11/08 05:05:51;;;;;;;0.20;0.10;;;14.20;99.90;;;;;;25539847;23;20413;-72
2022/11/08 05:15:59;;;;;;;0.20;0.10;;;14.20;99.90;;;;;;25539444;23;20378;-71
2022/11/08 05:26:04;;;;;;;0.20;0.10;;;14.40;99.90;;;;;;25539133;23;20368;-71
2022/11/08 05:36:10;;;;;;;0.20;0.10;;;14.30;99.90;;;;;;25537675;23;20374;-72
2022/11/08 05:46:17;;;;;;;0.20;0.10;;;14.50;99.90;;;;;;25512670;23;20373;-71
2022/11/08 05:56:22;;;;;;;0.20;0.00;;;14.70;99.90;;;;;;25535689;23;20430;-70
2022/11/08 06:06:28;;;;;;;0.20;0.00;;;14.90;99.90;;;;;;25536501;23;20813;-71
2022/11/08 06:16:31;;;;;;;0.20;0.10;;;14.90;99.90;;;;;;25535115;23;20386;-71
2022/11/08 06:26:37;;;;;;;0.20;0.00;;;15.10;99.90;;;;;;25510139;23;20376;-71
2022/11/08 06:36:40;;;;;;;0.20;0.10;;;15.40;99.90;;;;;;25532498;23;20388;-71
2022/11/08 06:46:46;;;;;;;0.20;0.00;;;15.60;99.90;;;;;;25531067;23;20373;-71
2022/11/08 06:56:50;;;;;;;0.20;0.10;;;15.80;99.90;;;;;;25522092;23;20376;-72
2022/11/08 07:06:56;;;;;;;0.20;0.00;;;16.00;99.90;;;;;;25523083;23;20369;-70
2022/11/08 07:16:59;;;;;;;0.20;0.10;;;16.50;99.90;;;;;;25532901;23;20392;-71
2022/11/08 07:27:08;;;;;;;0.20;0.00;;;17.00;99.90;;;;;;25531719;23;20400;-70
2022/11/08 07:37:11;;;;;;;0.20;0.00;;;17.50;99.90;;;;;;25532047;23;20404;-70
2022/11/08 07:47:17;;;;;;;0.20;0.00;;;18.00;99.90;;;;;;25530425;23;20368;-71
2022/11/08 07:57:21;;;;;;;0.20;0.00;;;18.20;99.90;;;;;;25503735;23;20412;-72
2022/11/08 08:07:26;;;;;;;0.20;0.00;;;18.20;99.90;;;;;;25527278;23;20357;-70
2022/11/08 08:17:30;;;;;;;0.20;0.00;;;18.60;99.90;;;;;;25530039;23;20381;-73
2022/11/08 08:27:35;;;;;;;0.20;0.07;;;18.70;99.90;;;;;;25529837;23;20384;-72
2022/11/08 08:37:39;;;;;;;0.20;0.00;;;18.90;99.90;;;;;;25513890;23;20405;-73
2022/11/08 08:47:44;;;;;;;0.20;0.00;;;19.20;99.90;;;;;;25537979;23;20376;-74
2022/11/08 08:57:48;;;;;;;0.20;0.00;;;19.30;99.90;;;;;;25539321;23;20378;-73
2022/11/08 09:07:56;;;;;;;0.20;0.10;;;19.30;99.90;;;;;;25539213;23;20400;-74
2022/11/08 09:18:00;;;;;;;0.20;0.00;;;19.30;99.90;;;;;;25537016;23;20400;-70
2022/11/08 09:28:05;;;;;;;0.20;0.00;;;19.10;99.90;;;;;;25536789;23;20425;-73
2022/11/08 09:38:09;;;;;;;0.20;0.00;;;19.40;99.90;;;;;;25535429;23;20373;-72
2022/11/08 09:48:22;;;;;;;0.20;0.00;;;19.60;99.90;;;;;;25534804;23;20370;-72
2022/11/08 09:58:33;;;;;;;0.20;0.00;;;20.00;99.90;;;;;;25530236;23;20392;-73
2022/11/08 10:08:46;;;;;;;0.20;0.00;;;20.10;99.90;;;;;;25533425;23;20360;-73
2022/11/08 10:19:11;;;;;;;0.20;0.00;;;20.20;99.90;;;;;;25527156;23;20408;-72
2022/11/08 10:29:20;;;;;;;0.20;0.00;;;20.60;99.90;;;;;;25501570;23;20365;-72
2022/11/08 10:39:27;;;;;;;0.20;0.00;;;20.80;99.90;;;;;;25524993;23;20380;-70
2022/11/08 10:49:34;;;;;;;0.20;0.00;;;21.70;99.90;;;;;;25522714;23;20370;-72
2022/11/08 10:59:41;;;;;;;0.20;0.10;;;21.80;99.90;;;;;;25523894;23;20479;-71
2022/11/08 11:09:46;;;;;;;0.20;0.00;;;21.80;99.90;;;;;;25526906;23;20365;-72
2022/11/08 11:19:54;;;;;;;0.20;0.00;;;21.70;99.90;;;;;;25420498;23;1925982;-67
2022/11/08 11:30:21;;;;;;;0.20;0.00;;;22.50;99.90;;;;;;25532530;23;20380;-73
2022/11/08 11:40:33;;;;;;;0.20;0.00;;;23.50;99.90;;;;;;25527341;23;20369;-72
2022/11/08 11:50:40;;;;;;;0.20;0.10;;;23.60;99.90;;;;;;25503662;23;20381;-74
2022/11/08 12:00:52;;;;;;;0.20;0.00;;;23.60;99.90;;;;;;25530740;23;20373;-72
2022/11/08 12:11:09;;;;;;;0.20;0.00;;;24.30;99.90;;;;;;25511778;23;20368;-72
2022/11/08 12:21:14;;;;;;;0.20;0.00;;;24.20;99.90;;;;;;25505172;23;20384;-72
2022/11/08 12:31:26;;;;;;;0.20;0.00;;;24.30;99.90;;;;;;25532574;23;20376;-73
2022/11/08 12:41:39;;;;;;;0.20;0.00;;;23.50;99.90;;;;;;25505811;23;20380;-73
2022/11/08 12:51:57;;;;;;;0.20;0.00;;;23.50;99.90;;;;;;25531009;23;20413;-72
2022/11/08 13:02:03;;;;;;;0.20;0.00;;;23.30;99.90;;;;;;25485053;23;20384;-72
2022/11/08 13:12:25;;;;;;;0.20;0.00;;;22.90;99.90;;;;;;25536891;23;20389;-72
2022/11/08 13:22:59;;;;;;;0.20;0.00;;;22.90;99.90;;;;;;25508617;23;20369;-70
2022/11/08 13:33:13;;;;;;;0.20;0.00;;;23.20;99.90;;;;;;25506531;23;20388;-73
2022/11/08 13:43:26;;;;;;;0.20;0.10;;;23.50;99.90;;;;;;25521210;23;20377;-76
2022/11/08 13:53:57;;;;;;;0.20;0.03;;;23.40;99.90;;;;;;25527771;23;20381;-71
2022/11/08 14:04:01;;;;;;;0.20;0.00;;;23.70;99.90;;;;;;25504534;23;20392;-72
2022/11/08 14:14:35;;;;;;;0.20;0.00;;;25.00;99.90;;;;;;25506706;23;20420;-71
2022/11/08 14:24:39;;;;;;;0.20;0.00;;;25.40;99.90;;;;;;25529644;23;20398;-72
2022/11/08 14:34:45;;;;;;;0.20;0.00;;;25.60;99.90;;;;;;25530700;23;20397;-71
2022/11/08 14:44:51;;;;;;;0.20;0.00;;;25.70;99.90;;;;;;25478192;23;20373;-71
2022/11/08 14:55:04;;;;;;;0.20;0.00;;;26.20;99.90;;;;;;25526386;23;20377;-71
2022/11/08 15:05:27;;;;;;;0.20;0.00;;;25.60;99.90;;;;;;25530517;23;20365;-71
2022/11/08 15:15:34;;;;;;;0.20;0.00;;;25.10;99.90;;;;;;25528595;23;20388;-74
2022/11/08 15:25:38;;;;;;;0.20;0.00;;;22.80;99.90;;;;;;25528209;23;20376;-72
2022/11/08 15:35:47;;;;;;;0.20;0.00;;;22.00;99.90;;;;;;25528169;23;20377;-72
2022/11/08 15:45:53;;;;;;;0.20;0.00;;;21.60;99.90;;;;;;25497177;23;20373;-72
2022/11/08 15:56:01;;;;;;;0.20;0.00;;;21.10;99.90;;;;;;25472381;23;20377;-71
2022/11/08 16:06:05;;;;;;;0.20;0.00;;;20.90;99.90;;;;;;25523922;23;20366;-75
2022/11/08 16:16:14;;;;;;;0.20;0.00;;;20.70;99.90;;;;;;25496569;23;20408;-69
2022/11/08 16:26:19;;;;;;;0.20;0.00;;;20.30;99.90;;;;;;25517931;23;20370;-72
2022/11/08 16:36:26;;;;;;;0.20;0.00;;;19.90;99.90;;;;;;25521716;23;20404;-70
2022/11/08 16:46:30;;;;;;;0.20;0.00;;;19.90;99.90;;;;;;25494295;23;20380;-70
2022/11/08 16:56:35;;;;;;;0.20;0.03;;;19.70;99.90;;;;;;25528929;23;20380;-71
2022/11/08 17:06:39;;;;;;;0.20;0.00;;;19.80;99.90;;;;;;25532251;23;20370;-69
2022/11/08 17:16:45;;;;;;;0.20;0.00;;;19.50;99.90;;;;;;25507579;23;20392;-73
2022/11/08 17:26:52;;;;;;;0.20;0.10;;;19.40;99.90;;;;;;25526699;23;20372;-69
2022/11/08 17:36:57;;;;;;;0.20;0.00;;;19.40;99.90;;;;;;25525938;23;20392;-69
2022/11/08 17:47:01;;;;;;;0.20;0.00;;;19.30;99.90;;;;;;25500370;23;20385;-70
2022/11/08 17:57:06;;;;;;;0.20;0.00;;;19.30;99.90;;;;;;25531062;23;20373;-71
2022/11/08 18:07:10;;;;;;;0.20;0.00;;;19.30;99.90;;;;;;25532508;23;20883;-71
2022/11/08 18:17:16;;;;;;;0.20;0.00;;;19.00;99.90;;;;;;25527998;23;20405;-71
2022/11/08 18:27:20;;;;;;;0.20;0.00;;;18.40;99.90;;;;;;25532711;23;20373;-70
2022/11/08 18:37:25;;;;;;;0.20;0.00;;;18.30;99.90;;;;;;25504852;23;20412;-74
2022/11/08 18:47:32;;;;;;;0.20;0.00;;;18.10;99.90;;;;;;25530833;23;20425;-70
2022/11/08 18:57:37;;;;;;;0.20;0.00;;;17.90;99.90;;;;;;25518993;23;20405;-70
2022/11/08 19:07:41;;;;;;;0.20;0.10;;;17.70;99.90;;;;;;25525922;23;20384;-69
2022/11/08 19:17:47;;;;;;;0.20;0.05;;;17.40;99.90;;;;;;25524816;23;20377;-69
2022/11/08 19:27:56;;;;;;;0.20;0.00;;;17.30;99.90;;;;;;25524123;23;20366;-70
2022/11/08 19:38:01;;;;;;;0.20;0.03;;;17.00;99.90;;;;;;25519806;23;20396;-69
2022/11/08 19:48:06;;;;;;;0.20;0.00;;;16.90;99.90;;;;;;25524979;23;20365;-69
2022/11/08 19:58:12;;;;;;;0.20;0.08;;;16.60;99.90;;;;;;25498830;23;20373;-71
2022/11/08 20:08:16;;;;;;;0.20;0.10;;;16.40;99.90;;;;;;25523767;23;20417;-71
2022/11/08 20:18:22;;;;;;;0.20;0.07;;;16.50;99.90;;;;;;25500171;23;20377;-72
2022/11/08 20:28:26;;;;;;;0.20;0.05;;;16.40;99.90;;;;;;25505096;23;20373;-69
2022/11/08 20:38:31;;;;;;;0.20;0.00;;;16.40;99.90;;;;;;25533122;23;20384;-70
2022/11/08 20:48:35;;;;;;;0.20;0.10;;;16.10;99.90;;;;;;25534167;23;20357;-68
2022/11/08 20:58:42;;;;;;;0.20;0.03;;;15.90;99.90;;;;;;25530347;23;20468;-69
2022/11/08 21:08:46;;;;;;;0.20;0.10;;;15.80;99.90;;;;;;25508602;23;20389;-70
2022/11/08 21:19:12;;;;;;;0.20;0.10;;;15.70;99.90;;;;;;25505912;23;20458;-69
2022/11/08 21:29:17;;;;;;;0.20;0.10;;;15.80;99.90;;;;;;25505439;23;20365;-71
2022/11/08 21:39:22;;;;;;;0.20;0.00;;;15.80;99.90;;;;;;25481481;23;20389;-69
2022/11/08 21:49:27;;;;;;;0.20;0.10;;;15.50;99.90;;;;;;25532607;23;20377;-72
2022/11/08 21:59:32;;;;;;;0.20;0.10;;;15.70;99.90;;;;;;25534216;23;20410;-71
2022/11/08 22:09:36;;;;;;;0.20;0.00;;;15.60;99.90;;;;;;25536879;23;20373;-72
2022/11/08 22:19:42;;;;;;;0.20;0.10;;;15.50;99.90;;;;;;25511238;23;20369;-72
2022/11/08 22:29:46;;;;;;;0.20;0.10;;;15.50;99.90;;;;;;25537389;23;20408;-71
2022/11/08 22:39:53;;;;;;;0.20;0.00;;;15.50;99.90;;;;;;25507968;23;20404;-73
2022/11/08 22:49:58;;;;;;;0.20;0.10;;;15.60;99.90;;;;;;25537019;23;20369;-72
2022/11/08 23:00:08;;;;;;;0.20;0.00;;;15.50;99.90;;;;;;25531593;23;20455;-73
2022/11/08 23:10:14;;;;;;;0.20;0.10;;;15.40;99.90;;;;;;25508453;23;20353;-71
2022/11/08 23:51:29;;;;;;;0.20;0.10;;;15.00;99.90;;;;;;25509903;23;20809;-72
